Time;durP1;ratioP1;P1;durP2;ratioP2;P2;SDS_P1;SDS_P2;PMS_P1;PMS_P2;Temp;Humidity;BMP_temperature;BMP_pressure;BME280_temperature;BME280_humidity;BME280_pressure;Samples;Min_cycle;Max_cycle;Signal;HPM_P1;HPM_P2
2021/04/13 00:01:14;;;;;;;;;;;;;;;13.93;45.43;95053.22;4881229;29;20259;-81
2021/04/13 00:03:44;;;;;;;;;;;;;;;13.94;45.39;95057.50;4880374;29;19927;-81
2021/04/13 00:06:38;;;;;;;;;;;;;;;13.93;45.66;95053.22;4864976;29;19946;-81
2021/04/13 00:09:29;;;;;;;;;;;;;;;13.94;45.87;95052.25;4877597;29;19964;-81
2021/04/13 00:12:01;;;;;;;;;;;;;;;13.93;45.67;95055.84;4862447;29;19919;-81
2021/04/13 00:14:59;;;;;;;;;;;;;;;13.93;45.76;95050.59;4846787;29;19911;-81
2021/04/13 00:17:28;;;;;;;;;;;;;;;13.93;45.85;95047.16;4824962;29;19956;-81
2021/04/13 00:19:56;;;;;;;;;;;;;;;13.93;45.26;95045.31;4831866;29;19924;-82
2021/04/13 00:22:51;;;;;;;;;;;;;;;13.94;45.60;95051.41;4841401;29;19916;-81
2021/04/13 00:25:21;;;;;;;;;;;;;;;13.94;45.40;95046.97;4807067;29;20008;-81
2021/04/13 00:28:02;;;;;;;;;;;;;;;13.95;45.43;95050.41;4802568;29;19917;-82
2021/04/13 00:30:45;;;;;;;;;;;;;;;13.95;45.90;95042.53;4809895;29;20013;-81
2021/04/13 00:33:17;;;;;;;;;;;;;;;13.94;45.65;95046.97;4789364;29;20401;-81
2021/04/13 00:35:48;;;;;;;;;;;;;;;13.95;45.59;95050.41;4803260;29;19913;-81
2021/04/13 00:38:14;;;;;;;;;;;;;;;13.94;45.44;95044.34;4804313;29;19996;-81
2021/04/13 00:40:52;;;;;;;;;;;;;;;13.95;45.24;95048.63;4803516;29;19928;-82
2021/04/13 00:43:22;;;;;;;;;;;;;;;13.95;45.47;95047.78;4804268;29;20303;-82
2021/04/13 00:45:48;;;;;;;;;;;;;;;13.95;45.33;95053.88;4796342;29;19979;-81
2021/04/13 00:48:27;;;;;;;;;;;;;;;13.95;45.54;95043.38;4790774;29;19921;-81
2021/04/13 00:50:53;;;;;;;;;;;;;;;13.96;45.46;95041.53;4806531;29;19952;-81
2021/04/13 00:53:21;;;;;;;;;;;;;;;13.95;45.45;95043.38;4794085;29;19923;-82
2021/04/13 00:55:54;;;;;;;;;;;;;;;13.96;45.31;95033.66;4827513;29;20064;-82
2021/04/13 00:58:21;;;;;;;;;;;;;;;13.95;45.19;95032.84;4825215;29;20385;-81
2021/04/13 01:00:47;;;;;;;;;;;;;;;13.96;45.21;95037.09;4820733;29;19987;-82
2021/04/13 01:03:15;;;;;;;;;;;;;;;13.95;45.25;95035.47;4902269;29;19939;-81
2021/04/13 01:06:00;;;;;;;;;;;;;;;13.96;45.49;95044.97;4919231;29;19911;-81
2021/04/13 01:08:37;;;;;;;;;;;;;;;13.95;45.33;95043.38;4911829;29;20042;-81
2021/04/13 01:11:23;;;;;;;;;;;;;;;13.97;45.33;95037.94;4926922;29;19919;-82
2021/04/13 01:13:50;;;;;;;;;;;;;;;13.96;45.24;95039.72;4914738;29;20088;-82
2021/04/13 01:16:16;;;;;;;;;;;;;;;13.95;45.55;95035.47;4903621;29;19919;-81
2021/04/13 01:18:42;;;;;;;;;;;;;;;13.96;45.31;95037.09;4901324;29;19953;-81
2021/04/13 01:21:22;;;;;;;;;;;;;;;13.97;45.23;95040.56;4916353;29;19910;-81
2021/04/13 01:23:57;;;;;;;;;;;;;;;13.96;45.46;95036.28;4930624;29;19918;-81
2021/04/13 01:26:33;;;;;;;;;;;;;;;13.95;44.98;95043.38;4933639;29;19910;-82
2021/04/13 01:29:01;;;;;;;;;;;;;;;13.97;45.23;95038.75;4918688;29;20132;-81
2021/04/13 01:31:46;;;;;;;;;;;;;;;13.97;45.43;95036.09;4934143;29;19930;-82
2021/04/13 01:34:46;;;;;;;;;;;;;;;13.97;45.13;95041.38;4904229;29;19959;-81
2021/04/13 01:37:19;;;;;;;;;;;;;;;13.97;44.85;95037.94;4898849;29;19924;-81
2021/04/13 01:42:55;;;;;;;;;;;;;;;13.97;44.68;95046.63;4892131;29;19923;-81
2021/04/13 01:45:32;;;;;;;;;;;;;;;13.98;44.81;95042.19;4917751;29;19922;-81
2021/04/13 01:47:59;;;;;;;;;;;;;;;13.98;45.14;95036.91;4887259;29;19915;-81
2021/04/13 01:50:37;;;;;;;;;;;;;;;13.98;44.70;95040.38;4867355;29;19963;-81
2021/04/13 01:53:11;;;;;;;;;;;;;;;13.98;45.08;95040.38;4867513;29;20748;-81
2021/04/13 01:55:54;;;;;;;;;;;;;;;13.98;44.99;95036.91;4849061;29;20371;-81
2021/04/13 01:58:37;;;;;;;;;;;;;;;13.97;45.17;95044.00;4894739;29;19934;-81
2021/04/13 02:01:23;;;;;;;;;;;;;;;13.98;44.73;95048.28;4867174;29;19959;-80
2021/04/13 02:04:21;;;;;;;;;;;;;;;13.99;44.37;95041.19;4879683;29;19915;-81
2021/04/13 02:10:32;;;;;;;;;;;;;;;13.98;44.88;95040.38;4787945;30;19921;-81
2021/04/13 02:13:19;;;;;;;;;;;;;;;13.98;44.65;95037.75;4755665;30;19925;-81
2021/04/13 02:16:15;;;;;;;;;;;;;;;13.99;44.45;95039.41;4754453;30;20438;-82
2021/04/13 02:19:00;;;;;;;;;;;;;;;14.00;44.74;95037.56;4752198;30;20020;-82
2021/04/13 02:21:39;;;;;;;;;;;;;;;13.99;44.49;95042.03;4752760;30;20419;-81
2021/04/13 02:24:20;;;;;;;;;;;;;;;14.00;44.88;95037.56;4752305;30;19914;-81
2021/04/13 02:26:52;;;;;;;;;;;;;;;13.99;44.81;95039.41;4751661;30;19918;-81
2021/04/13 02:29:18;;;;;;;;;;;;;;;13.99;45.14;95039.41;4722459;30;21552;-81
2021/04/13 02:31:56;;;;;;;;;;;;;;;13.98;45.03;95039.53;4737158;30;19918;-81
2021/04/13 02:34:36;;;;;;;;;;;;;;;13.98;45.27;95032.50;4751558;30;19925;-81
2021/04/13 02:37:08;;;;;;;;;;;;;;;13.98;45.48;95035.13;4750972;30;19928;-82
2021/04/13 02:39:34;;;;;;;;;;;;;;;13.98;45.41;95032.50;4737290;30;19921;-81
2021/04/13 02:42:06;;;;;;;;;;;;;;;13.98;45.38;95037.75;4749392;30;19930;-81
2021/04/13 02:44:51;;;;;;;;;;;;;;;13.98;45.17;95029.03;4767033;30;19918;-81
2021/04/13 02:47:53;;;;;;;;;;;;;;;13.98;45.39;95032.50;4812126;29;20008;-81
2021/04/13 02:50:30;;;;;;;;;;;;;;;13.97;45.48;95030.84;4878448;29;19916;-82
2021/04/13 02:53:06;;;;;;;;;;;;;;;13.98;45.15;95031.66;4863076;29;20295;-81
2021/04/13 02:55:57;;;;;;;;;;;;;;;13.98;45.56;95031.66;4877134;29;19912;-81
2021/04/13 02:58:22;;;;;;;;;;;;;;;13.98;45.17;95035.13;4860554;29;20288;-81
2021/04/13 03:00:51;;;;;;;;;;;;;;;13.99;45.16;95033.28;4862051;29;19912;-81
2021/04/13 03:03:17;;;;;;;;;;;;;;;13.99;45.51;95038.56;4848072;29;20014;-81
2021/04/13 03:05:58;;;;;;;;;;;;;;;13.98;45.48;95042.19;4847835;29;19955;-81
2021/04/13 03:08:39;;;;;;;;;;;;;;;13.98;45.53;95036.91;4862169;29;19916;-81
2021/04/13 03:11:21;;;;;;;;;;;;;;;13.98;45.30;95040.38;4846801;29;19926;-82
2021/04/13 03:13:55;;;;;;;;;;;;;;;13.98;45.23;95039.53;4847453;29;19947;-82
2021/04/13 03:16:43;;;;;;;;;;;;;;;13.98;45.28;95037.75;4847004;29;19967;-82
2021/04/13 03:19:10;;;;;;;;;;;;;;;13.98;45.14;95037.75;4859546;29;20291;-82
2021/04/13 03:22:01;;;;;;;;;;;;;;;13.98;45.21;95031.66;4851416;29;19919;-82
2021/04/13 03:24:30;;;;;;;;;;;;;;;13.99;45.62;95041.19;4814970;29;19916;-81
2021/04/13 03:27:16;;;;;;;;;;;;;;;13.98;45.67;95036.91;4816057;29;19971;-81
2021/04/13 03:29:57;;;;;;;;;;;;;;;13.98;45.73;95034.28;4816547;29;19999;-81
2021/04/13 03:32:38;;;;;;;;;;;;;;;13.98;45.18;95037.75;4823107;29;19951;-81
2021/04/13 03:35:05;;;;;;;;;;;;;;;13.98;45.35;95036.91;4823583;29;19970;-81
2021/04/13 03:37:31;;;;;;;;;;;;;;;13.98;45.29;95036.91;4811138;29;19924;-82
2021/04/13 03:40:09;;;;;;;;;;;;;;;13.97;45.72;95038.75;4808002;29;19929;-82
2021/04/13 03:42:39;;;;;;;;;;;;;;;13.98;45.63;95042.19;4823154;29;19913;-82
2021/04/13 03:45:14;;;;;;;;;;;;;;;13.98;45.67;95040.38;4822858;29;19944;-82
2021/04/13 03:47:50;;;;;;;;;;;;;;;13.98;45.72;95039.53;4822771;29;19921;-81
2021/04/13 03:50:27;;;;;;;;;;;;;;;13.98;45.74;95037.75;4822863;29;19912;-82
2021/04/13 03:53:16;;;;;;;;;;;;;;;13.98;45.31;95043.00;4806929;29;19999;-81
2021/04/13 03:56:02;;;;;;;;;;;;;;;13.97;45.66;95036.09;4822424;29;20012;-81
2021/04/13 03:58:31;;;;;;;;;;;;;;;13.98;45.58;95043.00;4822492;29;19937;-81
2021/04/13 04:00:56;;;;;;;;;;;;;;;13.97;45.35;95041.38;4837853;29;19922;-82
2021/04/13 04:03:22;;;;;;;;;;;;;;;13.98;45.44;95043.00;4900628;29;19918;-81
2021/04/13 04:05:51;;;;;;;;;;;;;;;13.99;45.35;95035.94;4897666;29;19915;-81
2021/04/13 04:08:22;;;;;;;;;;;;;;;13.99;45.37;95035.94;4915840;29;19915;-81
2021/04/13 04:11:14;;;;;;;;;;;;;;;13.97;45.70;95036.09;4915685;29;19915;-81
2021/04/13 04:13:49;;;;;;;;;;;;;;;13.98;45.64;95048.28;4877756;29;20017;-81
2021/04/13 04:16:18;;;;;;;;;;;;;;;13.98;45.82;95042.19;4854079;29;19999;-81
2021/04/13 04:18:52;;;;;;;;;;;;;;;13.98;45.36;95047.44;4831312;29;20422;-81
2021/04/13 04:21:56;;;;;;;;;;;;;;;13.98;45.59;95043.00;4859529;29;20390;-81
2021/04/13 04:24:31;;;;;;;;;;;;;;;13.97;45.34;95046.63;4844093;29;19964;-81
2021/04/13 04:27:25;;;;;;;;;;;;;;;13.98;45.74;95047.44;4847342;29;19923;-81
2021/04/13 04:29:52;;;;;;;;;;;;;;;13.97;45.45;95051.91;4815282;29;19917;-82
2021/04/13 04:32:18;;;;;;;;;;;;;;;13.98;45.79;95056.16;4792465;29;19932;-81
2021/04/13 04:34:44;;;;;;;;;;;;;;;13.98;45.54;95055.34;4805906;29;20262;-81
2021/04/13 04:37:46;;;;;;;;;;;;;;;13.99;45.79;95062.25;4809919;29;19932;-81
2021/04/13 04:40:15;;;;;;;;;;;;;;;13.98;45.53;95056.16;4802455;29;19924;-82
2021/04/13 04:43:03;;;;;;;;;;;;;;;13.98;45.74;95057.97;4808245;29;19917;-81
2021/04/13 04:45:44;;;;;;;;;;;;;;;13.97;45.91;95062.41;4821628;29;19921;-81
2021/04/13 04:48:26;;;;;;;;;;;;;;;13.99;45.49;95070.13;4807575;29;20091;-82
2021/04/13 04:51:05;;;;;;;;;;;;;;;13.98;45.73;95071.13;4808619;29;20334;-81
2021/04/13 04:53:31;;;;;;;;;;;;;;;13.98;45.57;95064.06;4826665;29;19959;-80
2021/04/13 04:56:08;;;;;;;;;;;;;;;13.98;45.77;95066.69;4831725;29;19923;-81
2021/04/13 04:58:33;;;;;;;;;;;;;;;13.98;45.81;95064.06;4827328;29;19998;-80
2021/04/13 05:00:59;;;;;;;;;;;;;;;13.98;45.87;95065.84;4831873;29;20019;-81
2021/04/13 05:03:26;;;;;;;;;;;;;;;13.98;45.70;95069.31;4843725;29;20007;-81
2021/04/13 05:05:54;;;;;;;;;;;;;;;13.98;46.01;95064.06;4853654;29;19915;-81
2021/04/13 05:08:20;;;;;;;;;;;;;;;13.98;45.73;95071.97;4929082;29;19958;-80
2021/04/13 05:10:50;;;;;;;;;;;;;;;13.99;45.72;95072.75;4918971;29;19915;-81
2021/04/13 05:13:19;;;;;;;;;;;;;;;13.98;45.49;95069.31;4917120;29;20430;-81
2021/04/13 05:15:55;;;;;;;;;;;;;;;13.98;45.49;95079.84;4910758;29;19922;-81
2021/04/13 05:18:20;;;;;;;;;;;;;;;13.97;46.01;95083.47;4909360;29;20040;-81
2021/04/13 05:21:04;;;;;;;;;;;;;;;13.98;45.73;95086.91;4922162;29;19919;-80
2021/04/13 05:23:34;;;;;;;;;;;;;;;13.97;45.85;95083.47;4919063;29;19958;-80
2021/04/13 05:26:00;;;;;;;;;;;;;;;13.97;45.52;95083.47;4934888;29;19919;-80
2021/04/13 05:28:28;;;;;;;;;;;;;;;13.97;45.80;95088.72;4927837;29;20441;-81
2021/04/13 05:30:54;;;;;;;;;;;;;;;13.97;45.48;95088.72;4912710;29;19997;-82
2021/04/13 05:33:20;;;;;;;;;;;;;;;13.98;45.82;95095.63;4925604;29;20362;-81
2021/04/13 05:35:53;;;;;;;;;;;;;;;13.98;45.77;95100.06;4928861;29;20363;-82
2021/04/13 05:38:30;;;;;;;;;;;;;;;13.98;45.84;95093.00;4912400;29;19923;-81
2021/04/13 05:41:01;;;;;;;;;;;;;;;13.98;45.70;95097.44;4901598;29;19915;-81
2021/04/13 05:43:53;;;;;;;;;;;;;;;13.98;45.82;95095.63;4926325;29;19994;-81
2021/04/13 05:46:22;;;;;;;;;;;;;;;13.98;45.70;95094.78;4881344;29;20017;-81
2021/04/13 05:48:58;;;;;;;;;;;;;;;14.16;46.00;95098.03;4863854;29;19911;-81
2021/04/13 05:51:24;;;;;;;;;;;;;;;14.38;45.67;95106.16;4891712;29;19919;-81
2021/04/13 05:53:58;;;;;;;;;;;;;;;14.35;46.26;95104.69;4864395;29;20307;-80
2021/04/13 05:56:24;;;;;;;;;;;;;;;14.29;46.09;95101.94;4844984;29;20023;-80
2021/04/13 05:58:49;;;;;;;;;;;;;;;14.25;46.63;95103.25;4861002;29;19920;-80
2021/04/13 06:01:15;;;;;;;;;;;;;;;14.22;46.70;95101.78;4862830;29;19923;-80
2021/04/13 06:03:54;;;;;;;;;;;;;;;14.21;46.00;95100.16;4865777;29;19961;-80
2021/04/13 06:06:23;;;;;;;;;;;;;;;14.21;45.96;95100.16;4887489;29;19960;-80
2021/04/13 06:08:49;;;;;;;;;;;;;;;14.21;45.93;95105.44;4844765;29;19926;-80
2021/04/13 06:11:18;;;;;;;;;;;;;;;14.21;46.02;95097.53;4841955;29;19912;-80
2021/04/13 06:13:45;;;;;;;;;;;;;;;14.30;45.76;95106.22;4846795;29;19923;-80
2021/04/13 06:16:16;;;;;;;;;;;;;;;14.48;46.03;95100.69;4866529;29;20447;-79
2021/04/13 06:18:43;;;;;;;;;;;;;;;14.59;45.90;95100.31;4865815;29;20431;-80
2021/04/13 06:21:20;;;;;;;;;;;;;;;14.67;45.35;95105.56;4879173;29;19922;-79
2021/04/13 06:23:56;;;;;;;;;;;;;;;14.62;46.19;95102.59;4905420;29;19935;-81
2021/04/13 06:26:24;;;;;;;;;;;;;;;14.40;46.76;95109.47;4918714;29;19923;-81
2021/04/13 06:28:49;;;;;;;;;;;;;;;14.31;46.50;95107.84;4923535;29;19918;-81
2021/04/13 06:31:15;;;;;;;;;;;;;;;14.24;47.00;95105.09;4902294;29;19918;-81
2021/04/13 06:33:41;;;;;;;;;;;;;;;14.19;46.68;95112.66;4898438;29;19911;-81
2021/04/13 06:36:19;;;;;;;;;;;;;;;14.17;46.96;95109.38;4914515;29;19926;-80
2021/04/13 06:38:58;;;;;;;;;;;;;;;14.34;46.23;95110.13;4900940;29;19915;-81
2021/04/13 06:41:29;;;;;;;;;;;;;;;14.23;46.68;95106.06;4900682;29;19922;-81
2021/04/13 06:44:24;;;;;;;;;;;;;;;14.17;46.69;95110.22;4890192;28;19919;-80
2021/04/13 06:47:23;;;;;;;;;;;;;;;14.12;46.91;95111.72;4912035;29;19919;-80
2021/04/13 06:55:51;;;;;;;;;;;;;;;14.08;46.61;95105.16;4827543;29;20122;-80
2021/04/13 06:58:35;;;;;;;;;;;;;;;14.06;46.39;95110.59;4821310;29;19921;-80
2021/04/13 07:01:09;;;;;;;;;;;;;;;14.06;46.37;95115.84;4822489;29;19916;-80
2021/04/13 07:04:01;;;;;;;;;;;;;;;14.07;46.46;95108.78;4808168;29;19959;-80
2021/04/13 07:06:47;;;;;;;;;;;;;;;14.06;46.55;95115.00;4822070;29;19916;-80
2021/04/13 07:09:33;;;;;;;;;;;;;;;14.05;46.27;95110.72;4821828;29;19973;-80
2021/04/13 07:15:11;;;;;;;;;;;;;;;14.06;46.10;95112.38;4817379;29;19920;-80
2021/04/13 07:17:54;;;;;;;;;;;;;;;14.06;46.11;95112.38;4804019;29;19921;-79
2021/04/13 07:20:33;;;;;;;;;;;;;;;14.05;46.25;95114.19;4806882;29;19921;-78
2021/04/13 07:23:09;;;;;;;;;;;;;;;14.06;45.91;95112.38;4813823;29;20078;-79
2021/04/13 07:25:41;;;;;;;;;;;;;;;14.05;45.98;95110.72;4854009;29;20390;-79
2021/04/13 07:28:08;;;;;;;;;;;;;;;14.04;45.97;95112.56;4860179;29;19916;-79
2021/04/13 07:30:48;;;;;;;;;;;;;;;14.05;46.03;95121.25;4888410;29;19922;-78
2021/04/13 07:33:17;;;;;;;;;;;;;;;14.05;45.78;95116.00;4900483;29;19922;-78
2021/04/13 07:35:49;;;;;;;;;;;;;;;14.04;46.11;95117.00;4903208;29;20341;-78
2021/04/13 07:38:37;;;;;;;;;;;;;;;14.04;45.70;95115.19;4898990;29;19953;-78
2021/04/13 07:41:04;;;;;;;;;;;;;;;14.04;46.17;95109.13;4903097;29;19922;-79
2021/04/13 07:43:40;;;;;;;;;;;;;;;14.02;45.98;95112.72;4914519;29;20054;-79
2021/04/13 07:46:24;;;;;;;;;;;;;;;14.01;46.00;95111.06;4919506;29;19998;-79
2021/04/13 07:49:07;;;;;;;;;;;;;;;14.02;46.04;95111.91;4910997;29;19919;-78
2021/04/13 07:51:57;;;;;;;;;;;;;;;14.01;45.90;95111.06;4915306;29;19922;-77
2021/04/13 07:54:33;;;;;;;;;;;;;;;14.00;46.17;95106.00;4915211;29;19943;-78
2021/04/13 07:57:03;;;;;;;;;;;;;;;13.99;46.12;95105.19;4909150;29;19986;-78
2021/04/13 07:59:47;;;;;;;;;;;;;;;13.99;45.75;95102.56;4918659;29;19926;-78
2021/04/13 08:02:21;;;;;;;;;;;;;;;14.00;45.72;95106.81;4932192;29;20022;-79
2021/04/13 08:04:51;;;;;;;;;;;;;;;14.00;45.58;95111.25;4916374;29;19969;-78
2021/04/13 08:07:20;;;;;;;;;;;;;;;13.99;45.90;95107.81;4915912;29;20350;-78
2021/04/13 08:10:23;;;;;;;;;;;;;;;13.99;45.99;95102.56;4919219;29;19923;-78
2021/04/13 08:12:49;;;;;;;;;;;;;;;13.99;45.83;95113.06;4903204;29;20740;-79
2021/04/13 08:15:18;;;;;;;;;;;;;;;13.99;45.53;95120.13;4902489;29;19958;-78
2021/04/13 08:17:56;;;;;;;;;;;;;;;13.98;45.62;95119.31;4901296;29;20278;-78
2021/04/13 08:20:35;;;;;;;;;;;;;;;13.99;45.67;95112.22;4901215;29;19911;-79
2021/04/13 08:23:06;;;;;;;;;;;;;;;13.99;46.00;95112.22;4917371;29;19967;-79
2021/04/13 08:25:45;;;;;;;;;;;;;;;13.97;45.99;95109.78;4892595;29;20379;-78
2021/04/13 08:28:19;;;;;;;;;;;;;;;13.98;45.57;95107.94;4901213;29;19919;-79
2021/04/13 08:33:48;;;;;;;;;;;;;;;13.99;45.63;95110.44;4917657;29;19922;-79
2021/04/13 08:36:35;;;;;;;;;;;;;;;13.98;45.85;95114.06;4900901;29;19919;-78
2021/04/13 08:39:18;;;;;;;;;;;;;;;13.98;45.66;95114.06;4920286;29;19929;-80
2021/04/13 08:42:10;;;;;;;;;;;;;;;13.98;45.36;95119.31;4900985;29;19915;-79
2021/04/13 08:44:39;;;;;;;;;;;;;;;13.98;45.79;95113.22;4839462;29;20416;-79
2021/04/13 09:18:15;;;;;;;0.57;0.50;;;;;;;14.04;45.67;95115.19;6274324;22;816605;-77
2021/04/13 09:20:44;;;;;;;0.50;0.50;;;;;;;14.05;45.63;95126.53;6228083;23;20016;-77
2021/04/13 09:23:11;;;;;;;0.30;0.30;;;;;;;14.04;45.75;95123.09;6227804;23;20014;-77
2021/04/13 09:26:23;;;;;;;0.80;0.45;;;;;;;14.04;45.74;95136.22;6228020;23;20310;-77
2021/04/13 09:28:59;;;;;;;0.50;0.50;;;;;;;14.04;45.74;95130.97;6074843;23;20124;-77
2021/04/13 09:31:55;;;;;;;0.40;0.40;;;;;;;14.04;45.33;95128.34;6073266;23;20035;-77
2021/04/13 09:34:21;;;;;;;0.43;0.43;;;;;;;14.05;45.61;95131.78;6048896;23;20017;-77
2021/04/13 09:37:24;;;;;;;1.17;0.47;;;;;;;14.05;45.74;95132.63;6074093;23;20017;-77
2021/04/13 09:40:40;;;;;;;0.40;0.40;;;;;;;14.05;45.91;95137.88;6073738;23;20130;-76
2021/04/13 09:43:33;;;;;;;0.40;0.40;;;;;;;14.04;45.62;95135.44;6073800;23;20009;-75
2021/04/13 09:46:29;;;;;;;0.75;0.65;;;;;;;14.04;45.48;95138.06;6097417;23;20643;-77
2021/04/13 09:49:34;;;;;;;0.57;0.57;;;;;;;14.03;45.42;95131.97;6097292;23;20006;-76
2021/04/13 09:52:08;;;;;;;0.20;0.20;;;;;;;14.04;45.53;95138.06;6073621;23;20498;-77
2021/04/13 09:54:42;;;;;;;0.40;0.40;;;;;;;14.02;45.75;95133.78;6097600;23;20091;-77
2021/04/13 09:57:48;;;;;;;0.55;0.55;;;;;;;14.02;45.65;95133.78;6068577;23;20011;-77
2021/04/13 11:00:15;;;;;;;0.73;0.50;;;;;;;14.04;45.94;95099.41;6152366;23;20028;-81
2021/04/13 11:03:09;;;;;;;0.40;0.40;;;;;;;14.04;45.81;95101.22;6129540;23;20010;-80
2021/04/13 11:05:40;;;;;;;0.50;0.50;;;;;;;14.03;45.55;95095.13;6129885;23;20312;-82
2021/04/13 11:08:26;;;;;;;0.52;0.50;;;;;;;14.02;45.89;95091.69;6105534;23;20041;-82
2021/04/13 11:11:25;;;;;;;0.75;0.50;;;;;;;14.02;45.62;95094.31;6129144;23;20008;-82
2021/04/13 11:14:16;;;;;;;1.13;0.40;;;;;;;14.02;45.90;95091.69;6129808;23;20008;-83
2021/04/13 11:20:43;;;;;;;0.50;0.50;;;;;;;14.02;45.63;95085.59;6066288;23;20018;-82
2021/04/13 11:55:53;;;;;;;0.77;0.70;;;;;;;14.13;44.84;95081.75;6177718;22;2809339;-77
2021/04/13 11:58:22;;;;;;;0.90;0.60;;;;;;;14.13;45.51;95087.84;6203403;23;20031;-77
2021/04/13 12:00:51;;;;;;;;;;;;;;;14.13;45.29;95082.59;6229434;23;20432;-77
2021/04/13 12:03:55;;;;;;;1.80;1.00;;;;;;;14.11;45.35;95086.38;6228873;23;19990;-77
2021/04/13 12:08:58;;;;;;;0.40;0.40;;;;;;;14.07;45.58;95090.34;6219361;22;20021;-77
2021/04/13 12:11:38;;;;;;;0.68;0.68;;;;;;;14.07;45.68;95090.34;6192158;23;20011;-77
2021/04/13 12:14:30;;;;;;;0.50;0.50;;;;;;;14.07;45.62;95093.78;6193425;23;20034;-78
2021/04/13 12:16:56;;;;;;;0.57;0.57;;;;;;;14.07;45.55;95103.50;6192927;23;20008;-77
2021/04/13 12:19:24;;;;;;;0.40;0.40;;;;;;;14.06;45.32;95096.59;6192277;23;20008;-77
2021/04/13 12:22:34;;;;;;;1.13;0.57;;;;;;;14.06;45.61;95107.97;6167653;23;20020;-78
2021/04/13 12:27:34;;;;;;;0.45;0.45;;;;;;;14.05;45.82;95103.69;6159572;23;20016;-77
2021/04/13 12:30:25;;;;;;;0.57;0.57;;;;;;;14.06;45.75;95104.50;6167783;23;20337;-77
2021/04/13 12:32:50;;;;;;;1.05;0.60;;;;;;;14.05;45.59;95097.56;6167311;23;20015;-77
2021/04/13 12:35:57;;;;;;;0.55;0.55;;;;;;;14.05;45.51;95095.78;6143283;23;20005;-77
2021/04/13 12:38:45;;;;;;;0.47;0.47;;;;;;;14.05;45.55;95095.78;6179734;23;20050;-53
2021/04/13 12:41:16;;;;;;;0.50;0.50;;;;;;;14.05;45.76;95094.94;6223780;23;20083;-54
2021/04/13 12:43:46;;;;;;;0.52;0.50;;;;;;;14.04;46.04;95094.13;6222368;23;20007;-53
2021/04/13 12:47:04;;;;;;;0.60;0.60;;;;;;;14.05;45.48;95089.69;6221078;23;20008;-54
2021/04/13 12:49:32;;;;;;;1.95;0.63;;;;;;;14.04;45.98;95088.88;6131206;23;20083;-52
2021/04/13 12:52:01;;;;;;;0.73;0.50;;;;;;;14.02;45.56;95089.03;6107264;23;20060;-52
2021/04/13 12:57:20;;;;;;;0.85;0.50;;;;;;;14.04;45.48;95083.59;6156914;23;20435;-78
2021/04/13 12:59:50;;;;;;;0.60;0.60;;;;;;;14.04;45.74;95077.53;6106954;23;20033;-78
2021/04/13 13:02:39;;;;;;;0.40;0.40;;;;;;;14.04;46.16;95080.97;6082877;23;20411;-78
2021/04/13 13:10:15;;;;;;;0.50;0.40;;;;;;;14.04;45.91;95072.28;6127369;23;20350;-77
2021/04/13 13:12:41;;;;;;;0.50;0.50;;;;;;;14.02;45.62;95065.38;6079301;23;20059;-77
2021/04/13 13:15:13;;;;;;;1.00;0.60;;;;;;;14.04;45.42;95065.19;6077839;23;20009;-79
2021/04/13 13:17:46;;;;;;;0.50;0.50;;;;;;;14.04;45.90;95065.19;6106982;23;19998;-78
2021/04/13 13:20:13;;;;;;;0.40;0.40;;;;;;;14.05;46.18;95060.72;6105530;23;20010;-78
2021/04/13 13:22:53;;;;;;;1.10;0.43;;;;;;;14.04;46.10;95059.94;6106769;23;20422;-78
2021/04/13 13:25:38;;;;;;;;;;;;;;;14.04;45.73;95056.47;6106981;23;20032;-79
2021/04/13 13:28:18;;;;;;;0.47;0.47;;;;;;;14.04;45.66;95051.22;6129816;23;19910;-79
2021/04/13 13:30:44;;;;;;;1.17;0.30;;;;;;;14.03;46.04;95053.00;6106692;23;20017;-77
2021/04/13 13:33:13;;;;;;;0.50;0.50;;;;;;;14.03;45.67;95050.38;6082220;23;20457;-78
2021/04/13 13:35:40;;;;;;;0.40;0.40;;;;;;;14.04;45.83;95053.84;6086264;23;20330;-60
2021/04/13 13:38:08;;;;;;;0.57;0.57;;;;;;;14.03;45.77;95060.91;6119418;23;20024;-60
2021/04/13 13:40:37;;;;;;;0.55;0.55;;;;;;;14.04;45.42;95064.38;6084484;23;20017;-60
2021/04/13 13:43:08;;;;;;;;;;;;;;;14.05;46.12;95063.38;6082091;23;20005;-58
2021/04/13 13:46:12;;;;;;;0.50;0.50;;;;;;;14.05;45.76;95055.47;6106148;23;19935;-60
2021/04/13 13:48:37;;;;;;;0.40;0.40;;;;;;;14.05;45.62;95063.38;6104969;23;20009;-60
2021/04/13 13:51:26;;;;;;;0.40;0.40;;;;;;;14.04;46.00;95061.75;6081477;23;20006;-59
2021/04/13 13:54:08;;;;;;;0.63;0.50;;;;;;;14.04;45.75;95064.38;6084415;23;20067;-60
2021/04/13 13:56:53;;;;;;;0.57;0.57;;;;;;;14.04;46.05;95052.03;6107946;23;20494;-60
2021/04/13 13:59:42;;;;;;;0.70;0.47;;;;;;;14.03;45.69;95053.00;6129645;23;20071;-60
2021/04/13 14:02:17;;;;;;;0.40;0.40;;;;;;;14.04;45.62;95053.84;6105021;23;20013;-60
2021/04/13 14:04:53;;;;;;;0.52;0.52;;;;;;;14.04;45.77;95046.78;6154883;23;20002;-60
2021/04/13 14:07:34;;;;;;;0.60;0.38;;;;;;;14.03;46.04;95045.13;6105004;23;20010;-60
2021/04/13 14:10:21;;;;;;;0.40;0.40;;;;;;;14.05;45.75;95050.22;6104123;23;20639;-60
2021/04/13 14:12:47;;;;;;;0.40;0.40;;;;;;;14.05;46.23;95052.84;6129428;23;20092;-60
2021/04/13 14:15:35;;;;;;;0.52;0.52;;;;;;;14.04;45.71;95045.97;6104342;23;20029;-61
2021/04/13 14:18:30;;;;;;;0.70;0.43;;;;;;;14.04;45.97;95052.03;6134034;23;20009;-61
2021/04/13 14:21:11;;;;;;;0.32;0.32;;;;;;;14.04;45.73;95046.78;6105592;23;19997;-60
2021/04/13 14:23:40;;;;;;;0.40;0.40;;;;;;;14.04;45.84;95045.97;6129500;23;20089;-60
2021/04/13 14:26:25;;;;;;;0.40;0.40;;;;;;;14.04;45.80;95046.78;6080774;23;20016;-59
2021/04/13 14:29:10;;;;;;;0.63;0.40;;;;;;;14.04;46.17;95044.13;6107140;23;20434;-57
2021/04/13 14:31:37;;;;;;;0.50;0.50;;;;;;;14.04;45.84;95045.97;6105715;23;20012;-60
2021/04/13 14:34:05;;;;;;;0.50;0.50;;;;;;;14.04;45.79;95040.69;6129026;23;20060;-56
2021/04/13 14:36:31;;;;;;;0.43;0.43;;;;;;;14.04;45.60;95038.88;6105145;23;20013;-60
2021/04/13 14:38:57;;;;;;;0.38;0.38;;;;;;;14.04;45.66;95038.06;6129581;23;20378;-61
2021/04/13 14:41:22;;;;;;;0.40;0.40;;;;;;;14.05;45.99;95039.69;6128798;23;20438;-59
2021/04/13 14:43:48;;;;;;;0.40;0.40;;;;;;;14.05;46.11;95037.06;6129400;23;20379;-60
2021/04/13 14:46:14;;;;;;;0.30;0.30;;;;;;;14.04;45.50;95030.16;6128485;23;20453;-60
2021/04/13 14:48:59;;;;;;;0.30;0.30;;;;;;;14.05;45.59;95031.78;6128709;23;20005;-60
2021/04/13 14:51:26;;;;;;;0.32;0.32;;;;;;;14.04;46.14;95028.34;6128562;23;20310;-60
2021/04/13 14:53:51;;;;;;;0.40;0.40;;;;;;;14.04;45.77;95030.16;6153941;23;19997;-59
2021/04/13 14:56:17;;;;;;;0.40;0.40;;;;;;;14.05;45.52;95026.53;6104525;23;20005;-59
2021/04/13 14:58:47;;;;;;;0.40;0.40;;;;;;;14.04;45.62;95027.53;6104588;23;20006;-59
2021/04/13 15:01:23;;;;;;;0.30;0.30;;;;;;;14.05;46.17;95021.25;6153765;23;20005;-60
2021/04/13 15:03:48;;;;;;;0.32;0.32;;;;;;;14.04;45.79;95024.91;6105116;23;20002;-60
2021/04/13 15:06:16;;;;;;;0.30;0.30;;;;;;;14.05;45.96;95016.84;6104155;23;20097;-59
2021/04/13 15:09:11;;;;;;;0.38;0.38;;;;;;;14.05;45.53;95021.25;6129179;23;20001;-60
2021/04/13 15:11:38;;;;;;;0.35;0.35;;;;;;;14.04;46.06;95014.38;6011644;23;20091;-60
2021/04/13 15:14:29;;;;;;;0.35;0.35;;;;;;;14.05;46.16;95016.84;6012244;23;20038;-58
2021/04/13 15:16:55;;;;;;;0.25;0.25;;;;;;;14.05;45.80;95010.75;6033053;23;20021;-60
2021/04/13 15:19:21;;;;;;;0.30;0.30;;;;;;;14.05;45.90;95013.38;5988269;23;20010;-60
2021/04/13 15:21:54;;;;;;;0.47;0.47;;;;;;;14.05;45.66;95016.84;6001709;23;20019;-60
2021/04/13 15:24:49;;;;;;;0.30;0.30;;;;;;;14.05;45.56;95008.94;6038175;23;20130;-59
2021/04/13 15:27:24;;;;;;;0.70;0.43;;;;;;;14.05;45.73;95005.47;5989489;23;20011;-60
2021/04/13 15:29:51;;;;;;;0.35;0.35;;;;;;;14.05;46.11;95006.31;5966532;23;20014;-57
2021/04/13 15:32:26;;;;;;;0.40;0.40;;;;;;;14.04;46.20;95004.66;6012317;23;20020;-60
2021/04/13 15:34:53;;;;;;;0.50;0.50;;;;;;;14.05;45.74;94995.78;5988879;23;20015;-60
2021/04/13 15:37:40;;;;;;;0.47;0.47;;;;;;;14.10;45.72;94996.09;5989987;23;20606;-59
2021/04/13 15:40:06;;;;;;;0.65;0.60;;;;;;;14.37;45.21;94993.94;5992914;23;20086;-60
2021/04/13 15:42:34;;;;;;;0.57;0.57;;;;;;;14.56;45.14;94999.75;5966343;23;20099;-60
2021/04/13 15:45:14;;;;;;;3.03;1.30;;;;;;;14.66;42.05;95001.19;5989761;23;20014;-60
2021/04/13 15:47:40;;;;;;;2.15;1.08;;;;;;;14.59;45.08;95002.88;6010582;23;20045;-62